Time;durP1;ratioP1;P1;durP2;ratioP2;P2;SDS_P1;SDS_P2;PMS_P1;PMS_P2;Temp;Humidity;BMP_temperature;BMP_pressure;BME280_temperature;BME280_humidity;BME280_pressure;Samples;Min_cycle;Max_cycle;Signal;HPM_P1;HPM_P2
2024/01/29 00:00:23;;;;;;;4.18;2.67;;;5.40;99.90;;;;;;5098220;28;20044;-84
2024/01/29 00:02:49;;;;;;;7.28;2.78;;;4.80;99.90;;;;;;5114871;28;20085;-85
2024/01/29 00:05:15;;;;;;;5.72;2.75;;;5.00;99.90;;;;;;5115014;28;20063;-85
2024/01/29 00:07:41;;;;;;;7.45;2.90;;;3.50;99.90;;;;;;5115274;28;20040;-84
2024/01/29 00:10:07;;;;;;;4.43;3.05;;;5.40;99.90;;;;;;5116688;28;20047;-85
2024/01/29 00:12:33;;;;;;;6.65;2.97;;;3.90;99.90;;;;;;5098179;28;20039;-84
2024/01/29 00:14:59;;;;;;;6.10;2.75;;;4.70;99.90;;;;;;5116376;28;20528;-84
2024/01/29 00:17:24;;;;;;;7.18;3.25;;;4.30;99.90;;;;;;5116209;28;20084;-84
2024/01/29 00:19:50;;;;;;;7.25;3.00;;;4.80;99.90;;;;;;5114788;28;20051;-85
2024/01/29 00:22:16;;;;;;;7.68;2.80;;;4.70;99.90;;;;;;5116184;28;20047;-84
2024/01/29 00:24:41;;;;;;;5.93;3.15;;;5.20;99.90;;;;;;5114810;28;20040;-84
2024/01/29 00:27:07;;;;;;;4.75;2.70;;;5.00;99.90;;;;;;5097668;28;20196;-84
2024/01/29 00:29:33;;;;;;;6.00;2.85;;;3.90;99.90;;;;;;5097778;28;20043;-84
2024/01/29 00:31:58;;;;;;;4.32;2.55;;;5.10;99.90;;;;;;5116009;28;20093;-84
2024/01/29 00:34:24;;;;;;;3.92;2.33;;;5.30;99.90;;;;;;5097078;28;20046;-86
2024/01/29 00:36:50;;;;;;;7.85;3.05;;;5.00;99.90;;;;;;5114121;28;20128;-84
2024/01/29 00:39:16;;;;;;;6.45;2.90;;;2.50;99.90;;;;;;5114097;28;20408;-85
2024/01/29 00:41:41;;;;;;;7.97;2.90;;;4.00;99.90;;;;;;5114321;28;20043;-84
2024/01/29 00:44:07;;;;;;;8.45;3.72;;;4.70;99.90;;;;;;5115861;28;20047;-85
2024/01/29 00:46:33;;;;;;;5.30;2.80;;;5.60;99.90;;;;;;5114267;28;20411;-84
2024/01/29 00:48:58;;;;;;;4.78;3.17;;;3.00;99.90;;;;;;5114443;28;20043;-84
2024/01/29 00:51:24;;;;;;;4.60;2.83;;;4.80;99.90;;;;;;5114137;28;20063;-84
2024/01/29 00:53:50;;;;;;;6.00;3.05;;;5.50;99.90;;;;;;5113839;28;20039;-84
2024/01/29 00:56:15;;;;;;;7.50;2.97;;;3.20;99.90;;;;;;5115267;28;20092;-85
2024/01/29 00:58:43;;;;;;;4.38;2.65;;;5.10;99.90;;;;;;5115330;28;20039;-84
2024/01/29 01:01:11;;;;;;;4.38;2.72;;;4.40;99.90;;;;;;5096806;28;20050;-84
2024/01/29 01:03:36;;;;;;;5.68;3.00;;;3.70;99.90;;;;;;5114041;28;20035;-85
2024/01/29 01:06:02;;;;;;;6.78;3.38;;;5.70;99.90;;;;;;5096930;28;20400;-85
2024/01/29 01:08:28;;;;;;;5.50;2.58;;;3.70;99.90;;;;;;5113869;28;20043;-84
2024/01/29 01:10:53;;;;;;;6.00;2.92;;;4.70;99.90;;;;;;5115006;28;20036;-85
2024/01/29 01:13:19;;;;;;;6.55;2.95;;;4.60;99.90;;;;;;5115010;28;20046;-84
2024/01/29 01:15:45;;;;;;;4.63;2.88;;;4.80;99.90;;;;;;5113949;28;20039;-85
2024/01/29 01:18:10;;;;;;;5.38;3.03;;;5.00;99.90;;;;;;5096926;28;20043;-84
2024/01/29 01:20:36;;;;;;;4.57;2.60;;;3.80;99.90;;;;;;5113382;28;20052;-84
2024/01/29 01:23:02;;;;;;;4.90;2.40;;;3.90;99.90;;;;;;5112790;28;20051;-85
2024/01/29 01:25:27;;;;;;;5.47;2.95;;;3.50;99.90;;;;;;5113422;28;20046;-87
2024/01/29 01:27:53;;;;;;;4.85;2.80;;;2.40;99.90;;;;;;5113219;28;20126;-85
2024/01/29 01:30:21;;;;;;;8.75;3.35;;;4.50;99.90;;;;;;5096389;28;20036;-84
2024/01/29 01:32:47;;;;;;;5.82;3.25;;;3.40;99.90;;;;;;5114917;28;20044;-84
2024/01/29 01:35:12;;;;;;;6.88;2.83;;;4.60;99.90;;;;;;5114590;28;20119;-86
2024/01/29 01:37:38;;;;;;;6.82;2.95;;;3.30;99.90;;;;;;5113022;28;20043;-85
2024/01/29 01:40:04;;;;;;;6.15;2.40;;;2.70;99.90;;;;;;5113299;28;20130;-84
2024/01/29 01:42:30;;;;;;;6.25;2.95;;;3.20;99.90;;;;;;5112783;28;20091;-85
2024/01/29 01:44:56;;;;;;;7.65;2.95;;;4.30;99.90;;;;;;5113134;28;20472;-85
2024/01/29 01:47:22;;;;;;;7.10;3.00;;;3.60;99.90;;;;;;5112819;28;20084;-85
2024/01/29 01:49:48;;;;;;;5.80;3.05;;;5.20;99.90;;;;;;5114061;28;20404;-84
2024/01/29 01:52:18;;;;;;;5.13;2.63;;;4.40;99.90;;;;;;5114543;28;20043;-84
2024/01/29 01:54:44;;;;;;;8.30;3.33;;;4.20;99.90;;;;;;5114368;28;20048;-85
2024/01/29 01:57:10;;;;;;;4.28;2.90;;;4.00;99.90;;;;;;5113025;28;20042;-85
2024/01/29 01:59:39;;;;;;;4.40;2.20;;;4.10;99.90;;;;;;5114404;28;20039;-86
2024/01/29 02:02:06;;;;;;;5.57;3.50;;;5.00;99.90;;;;;;5114208;28;20404;-87
2024/01/29 02:04:32;;;;;;;5.18;2.67;;;3.20;99.90;;;;;;5096076;28;20051;-85
2024/01/29 02:06:59;;;;;;;9.20;2.85;;;3.20;99.90;;;;;;5112795;28;20450;-85
2024/01/29 02:09:25;;;;;;;5.65;3.15;;;3.90;99.90;;;;;;5114084;28;20028;-84
2024/01/29 02:11:50;;;;;;;4.78;3.22;;;4.10;99.90;;;;;;5095634;28;20092;-84
2024/01/29 02:14:16;;;;;;;5.85;3.63;;;4.00;99.90;;;;;;5112719;28;20526;-84
2024/01/29 02:16:42;;;;;;;8.02;3.28;;;3.50;99.90;;;;;;5114069;28;20065;-85
2024/01/29 02:19:15;;;;;;;7.53;3.35;;;4.80;99.90;;;;;;5112687;28;20086;-84
2024/01/29 02:21:42;;;;;;;4.22;2.50;;;3.10;99.90;;;;;;5112697;28;20040;-86
2024/01/29 02:24:07;;;;;;;8.10;3.30;;;5.20;99.90;;;;;;5112657;28;20127;-85
2024/01/29 02:26:33;;;;;;;3.53;2.72;;;4.60;99.90;;;;;;5112764;28;20508;-88
2024/01/29 02:28:59;;;;;;;4.65;2.95;;;3.90;99.90;;;;;;5112375;28;20031;-86
2024/01/29 02:31:24;;;;;;;7.35;3.05;;;4.30;99.90;;;;;;5112900;28;20100;-84
2024/01/29 02:33:50;;;;;;;9.30;3.53;;;4.80;99.90;;;;;;5113649;28;20058;-85
2024/01/29 02:36:16;;;;;;;6.13;2.70;;;5.50;99.90;;;;;;5113605;28;20048;-85
2024/01/29 02:38:42;;;;;;;9.02;3.40;;;4.40;99.90;;;;;;5112487;28;20047;-86
2024/01/29 02:41:08;;;;;;;7.63;2.95;;;2.70;99.90;;;;;;5112062;28;20050;-85
2024/01/29 02:43:34;;;;;;;7.63;3.10;;;2.00;99.90;;;;;;5113371;28;20044;-84
2024/01/29 02:46:00;;;;;;;6.35;3.58;;;3.00;99.90;;;;;;5129396;27;20097;-84
2024/01/29 02:48:26;;;;;;;6.18;3.50;;;3.60;99.90;;;;;;5112423;28;20043;-86
2024/01/29 02:50:52;;;;;;;6.97;3.22;;;4.10;99.90;;;;;;5113649;28;20044;-86
2024/01/29 02:53:18;;;;;;;6.25;3.20;;;4.50;99.90;;;;;;5113314;28;20043;-85
2024/01/29 02:55:44;;;;;;;6.78;2.70;;;4.70;99.90;;;;;;5113474;28;20468;-84
2024/01/29 02:58:09;;;;;;;5.28;2.97;;;4.40;99.90;;;;;;5095223;28;20467;-84
2024/01/29 03:00:35;;;;;;;8.50;2.83;;;3.40;99.90;;;;;;5113868;28;20036;-84
2024/01/29 03:03:01;;;;;;;5.47;2.90;;;5.10;99.90;;;;;;5112098;28;20083;-84
2024/01/29 03:05:27;;;;;;;6.30;3.45;;;4.90;99.90;;;;;;5112444;28;20040;-84
2024/01/29 03:07:52;;;;;;;5.90;2.67;;;4.80;99.90;;;;;;5113034;28;20032;-84
2024/01/29 03:10:18;;;;;;;5.15;3.00;;;3.60;99.90;;;;;;5111895;28;20077;-85
2024/01/29 03:12:44;;;;;;;6.90;3.17;;;4.70;99.90;;;;;;5112906;28;20451;-84
2024/01/29 03:15:10;;;;;;;6.75;3.47;;;5.30;99.90;;;;;;5112026;28;20184;-85
2024/01/29 03:17:35;;;;;;;7.70;3.35;;;3.80;99.90;;;;;;5113440;28;20043;-84
2024/01/29 03:20:02;;;;;;;6.82;3.33;;;3.50;99.90;;;;;;5112289;28;20555;-85
2024/01/29 03:22:28;;;;;;;6.38;3.75;;;3.70;99.90;;;;;;5112165;28;20173;-85
2024/01/29 03:24:53;;;;;;;5.25;3.85;;;5.40;99.90;;;;;;5112475;28;20123;-85
2024/01/29 03:27:19;;;;;;;5.82;3.20;;;4.80;99.90;;;;;;5112224;28;20043;-85
2024/01/29 03:29:45;;;;;;;6.25;3.33;;;3.90;99.90;;;;;;5095218;28;20568;-85
2024/01/29 03:32:10;;;;;;;5.10;3.33;;;2.80;99.90;;;;;;5112215;28;20051;-84
2024/01/29 03:34:40;;;;;;;4.28;2.60;;;4.30;99.90;;;;;;5113566;28;20170;-86
2024/01/29 03:37:06;;;;;;;6.78;3.10;;;4.00;99.90;;;;;;5111694;28;20055;-88
2024/01/29 03:39:32;;;;;;;4.28;3.15;;;4.30;99.90;;;;;;5111905;28;20046;-84
2024/01/29 03:41:57;;;;;;;5.55;3.25;;;5.10;99.90;;;;;;5112770;28;20039;-86
2024/01/29 03:44:23;;;;;;;5.45;3.90;;;2.10;99.90;;;;;;5111850;28;20484;-85
2024/01/29 03:46:49;;;;;;;7.25;3.60;;;4.30;99.90;;;;;;5115376;28;20053;-85
2024/01/29 03:49:14;;;;;;;6.47;3.38;;;1.90;99.90;;;;;;5116528;28;20085;-86
2024/01/29 03:51:40;;;;;;;5.15;3.65;;;4.00;99.90;;;;;;5115704;28;20058;-86
2024/01/29 03:54:05;;;;;;;6.15;3.22;;;2.50;99.90;;;;;;5115870;28;20082;-86
2024/01/29 03:56:31;;;;;;;5.05;3.20;;;2.50;99.90;;;;;;5116614;28;20123;-87
2024/01/29 03:58:57;;;;;;;8.88;3.63;;;2.80;99.90;;;;;;5115621;28;20060;-85
2024/01/29 04:01:29;;;;;;;7.32;3.83;;;2.10;99.90;;;;;;5115291;28;20403;-84
2024/01/29 04:03:55;;;;;;;7.72;3.88;;;2.70;99.90;;;;;;5115650;28;20039;-86
2024/01/29 04:06:21;;;;;;;6.85;3.67;;;3.10;99.90;;;;;;5116593;28;20163;-86
2024/01/29 04:08:47;;;;;;;5.43;3.30;;;4.00;99.90;;;;;;5115242;28;20131;-86
2024/01/29 04:11:13;;;;;;;6.55;3.55;;;3.50;99.90;;;;;;5115356;28;20399;-85
2024/01/29 04:13:39;;;;;;;6.63;3.75;;;2.00;99.90;;;;;;5098229;28;20047;-87
2024/01/29 04:16:08;;;;;;;10.45;3.83;;;3.30;99.90;;;;;;5115944;27;20130;-86
2024/01/29 04:18:34;;;;;;;7.60;3.80;;;2.10;99.90;;;;;;5115230;28;20048;-86
2024/01/29 04:20:59;;;;;;;6.90;3.60;;;1.80;99.90;;;;;;5116240;28;20066;-87
2024/01/29 04:23:25;;;;;;;7.57;3.95;;;2.10;99.90;;;;;;5116454;28;20046;-86
2024/01/29 04:25:51;;;;;;;7.97;4.35;;;4.40;99.90;;;;;;5116417;28;20081;-84
2024/01/29 04:28:17;;;;;;;6.88;3.92;;;2.00;99.90;;;;;;5116362;28;20054;-84
2024/01/29 04:30:42;;;;;;;6.00;3.65;;;3.50;99.90;;;;;;5114577;28;20101;-85
2024/01/29 04:33:08;;;;;;;5.50;3.72;;;3.00;99.90;;;;;;5116236;28;20090;-82
2024/01/29 04:35:35;;;;;;;8.52;3.78;;;2.70;99.90;;;;;;5114306;28;20480;-84
2024/01/29 04:38:01;;;;;;;8.85;4.53;;;3.80;99.90;;;;;;5131518;27;20059;-85
2024/01/29 04:40:26;;;;;;;6.28;3.72;;;1.80;99.90;;;;;;5115977;28;20043;-85
2024/01/29 04:42:52;;;;;;;7.28;3.88;;;2.60;99.90;;;;;;5097533;28;20050;-87
2024/01/29 04:45:18;;;;;;;5.57;3.97;;;2.50;99.90;;;;;;5115470;28;20078;-85
2024/01/29 04:47:43;;;;;;;5.90;3.63;;;4.10;99.90;;;;;;5115911;28;20044;-87
2024/01/29 04:50:09;;;;;;;9.05;3.75;;;3.30;99.90;;;;;;5097022;28;20038;-86
2024/01/29 04:52:35;;;;;;;9.90;4.38;;;2.70;99.90;;;;;;5115668;28;20044;-84
2024/01/29 04:55:01;;;;;;;8.43;3.97;;;3.70;99.90;;;;;;5097156;28;20031;-84
2024/01/29 04:57:26;;;;;;;6.53;4.18;;;2.60;99.90;;;;;;5116336;28;20043;-84
2024/01/29 04:59:52;;;;;;;4.90;3.45;;;4.20;99.90;;;;;;5114450;28;20081;-87
2024/01/29 05:02:18;;;;;;;8.23;4.10;;;4.50;99.90;;;;;;5114135;28;20051;-86
2024/01/29 05:04:44;;;;;;;6.90;4.18;;;3.70;99.90;;;;;;5114097;28;20044;-88
2024/01/29 05:07:10;;;;;;;8.32;4.22;;;2.30;99.90;;;;;;5097840;28;20079;-85
2024/01/29 05:09:35;;;;;;;7.82;4.13;;;4.00;99.90;;;;;;5098410;28;20042;-85
2024/01/29 05:12:01;;;;;;;9.63;3.90;;;3.80;99.90;;;;;;5115611;28;20414;-86
2024/01/29 05:14:28;;;;;;;10.95;4.70;;;3.40;99.90;;;;;;5115120;28;20682;-88
2024/01/29 05:16:53;;;;;;;7.03;4.57;;;2.40;99.90;;;;;;5116266;28;20052;-85
2024/01/29 05:19:19;;;;;;;9.98;5.05;;;3.90;99.90;;;;;;5117450;28;20038;-85
2024/01/29 05:21:47;;;;;;;6.65;4.13;;;2.00;99.90;;;;;;5117676;28;20054;-88
2024/01/29 05:24:13;;;;;;;7.55;4.75;;;2.00;99.90;;;;;;5117455;28;20047;-87
2024/01/29 05:26:39;;;;;;;8.55;3.88;;;1.40;99.90;;;;;;5115206;28;20039;-88
2024/01/29 05:29:04;;;;;;;6.65;4.40;;;2.40;99.90;;;;;;5115844;28;20152;-86
2024/01/29 05:31:30;;;;;;;7.25;5.03;;;4.00;99.90;;;;;;5115014;28;20047;-86
2024/01/29 05:33:56;;;;;;;9.02;4.20;;;3.60;99.90;;;;;;5115551;28;20040;-86
2024/01/29 05:36:22;;;;;;;8.00;4.60;;;4.80;99.90;;;;;;5114872;28;20127;-87
2024/01/29 05:38:47;;;;;;;7.03;4.65;;;1.90;99.90;;;;;;5116625;28;20051;-85
2024/01/29 05:41:13;;;;;;;10.68;4.78;;;4.00;99.90;;;;;;5115342;28;20047;-85
2024/01/29 05:43:39;;;;;;;8.15;4.32;;;4.50;99.90;;;;;;5098326;28;20042;-87
2024/01/29 05:46:04;;;;;;;11.52;4.82;;;3.70;99.90;;;;;;5096998;28;20514;-85
2024/01/29 05:48:30;;;;;;;7.53;4.70;;;2.80;99.90;;;;;;5114276;28;20127;-87
2024/01/29 05:50:56;;;;;;;8.93;4.38;;;2.40;99.90;;;;;;5115040;28;20566;-85
2024/01/29 05:53:22;;;;;;;6.95;4.57;;;4.90;99.90;;;;;;5114030;28;20047;-85
2024/01/29 05:55:48;;;;;;;6.60;4.10;;;4.70;99.90;;;;;;5113398;28;20168;-87
2024/01/29 05:58:14;;;;;;;7.68;4.32;;;2.90;99.90;;;;;;5113701;28;20040;-86
2024/01/29 06:00:40;;;;;;;10.02;4.53;;;3.30;99.90;;;;;;5113046;28;20044;-85
2024/01/29 06:03:06;;;;;;;8.57;4.50;;;3.10;99.90;;;;;;5112791;28;20816;-85
2024/01/29 06:05:31;;;;;;;7.22;4.78;;;5.30;99.90;;;;;;5114946;28;20100;-84
2024/01/29 06:07:57;;;;;;;11.43;4.82;;;4.30;99.90;;;;;;5114380;28;20044;-85
2024/01/29 06:10:23;;;;;;;6.05;4.03;;;2.20;99.90;;;;;;5114353;28;20503;-85
2024/01/29 06:12:48;;;;;;;7.05;4.32;;;3.20;99.90;;;;;;5112146;28;20130;-86
2024/01/29 06:15:14;;;;;;;11.50;4.47;;;4.60;99.90;;;;;;5113974;28;20081;-85
2024/01/29 06:17:40;;;;;;;15.27;5.03;;;4.50;99.90;;;;;;5112605;28;20047;-85
2024/01/29 06:20:07;;;;;;;8.80;5.43;;;2.90;99.90;;;;;;5112125;28;20036;-85
2024/01/29 06:22:33;;;;;;;8.57;4.50;;;3.20;99.90;;;;;;5112715;28;20058;-85
2024/01/29 06:24:58;;;;;;;9.95;4.88;;;3.60;99.90;;;;;;5112915;28;20399;-87
2024/01/29 06:27:24;;;;;;;8.77;4.93;;;4.70;99.90;;;;;;5112178;28;20040;-88
2024/01/29 06:29:50;;;;;;;7.95;5.03;;;3.40;99.90;;;;;;5113049;28;20051;-89
2024/01/29 06:32:15;;;;;;;11.20;4.72;;;3.00;99.90;;;;;;5095402;28;20083;-84
2024/01/29 06:38:25;;;;;;;8.55;4.85;;;2.90;99.90;;;;;;5093615;28;20087;-85
2024/01/29 06:40:51;;;;;;;8.68;4.95;;;2.70;99.90;;;;;;5072056;28;20447;-85
2024/01/29 06:43:17;;;;;;;8.57;4.85;;;2.90;99.90;;;;;;5071080;28;20052;-85
2024/01/29 06:45:43;;;;;;;9.35;4.72;;;4.20;99.90;;;;;;5071680;28;20471;-84
2024/01/29 06:48:08;;;;;;;6.68;4.38;;;2.90;99.90;;;;;;5071379;28;20444;-86
2024/01/29 06:50:34;;;;;;;8.38;5.45;;;1.80;99.90;;;;;;5072956;28;20452;-85
2024/01/29 06:53:00;;;;;;;9.32;5.07;;;4.90;99.90;;;;;;5071482;28;20049;-85
2024/01/29 06:55:25;;;;;;;8.30;5.07;;;4.30;99.90;;;;;;5069868;28;20044;-85
2024/01/29 06:57:51;;;;;;;10.25;4.63;;;3.90;99.90;;;;;;5077766;28;20048;-86
2024/01/29 07:00:17;;;;;;;9.68;5.32;;;3.90;99.90;;;;;;5055189;28;20187;-86
2024/01/29 07:02:43;;;;;;;8.73;5.55;;;3.20;99.90;;;;;;5072188;28;20037;-85
2024/01/29 07:05:08;;;;;;;9.90;5.18;;;4.30;99.90;;;;;;5073325;28;20607;-83
2024/01/29 07:07:34;;;;;;;8.95;4.93;;;3.20;99.90;;;;;;5072620;28;20037;-85
2024/01/29 07:10:00;;;;;;;12.07;6.00;;;4.90;99.90;;;;;;5051347;28;20037;-84
2024/01/29 07:12:26;;;;;;;8.57;4.72;;;3.10;99.90;;;;;;5051335;28;20497;-85
2024/01/29 07:14:53;;;;;;;9.85;4.82;;;4.60;99.90;;;;;;5051274;28;20128;-87
2024/01/29 07:17:19;;;;;;;10.50;5.68;;;4.80;99.90;;;;;;5062432;28;20438;-84
2024/01/29 07:19:47;;;;;;;7.68;5.45;;;5.40;99.90;;;;;;5072583;28;20033;-86
2024/01/29 07:22:18;;;;;;;8.60;4.93;;;4.60;99.90;;;;;;5075658;28;20481;-86
2024/01/29 07:24:48;;;;;;;8.52;5.47;;;3.20;99.90;;;;;;5075992;28;20063;-87
2024/01/29 07:27:17;;;;;;;10.18;5.97;;;3.30;99.90;;;;;;5075679;28;20071;-85
2024/01/29 07:29:44;;;;;;;8.52;4.90;;;3.90;99.90;;;;;;5076817;28;20098;-85
2024/01/29 07:32:10;;;;;;;7.72;4.65;;;5.10;99.90;;;;;;5076594;28;20385;-85
2024/01/29 07:34:36;;;;;;;11.80;5.43;;;5.10;99.90;;;;;;5075774;28;20040;-85
2024/01/29 07:37:02;;;;;;;13.65;5.55;;;2.40;99.90;;;;;;5076770;28;20101;-85
2024/01/29 07:39:28;;;;;;;9.18;5.82;;;4.30;99.90;;;;;;5093120;28;20092;-84
2024/01/29 07:41:54;;;;;;;9.15;5.15;;;3.50;99.90;;;;;;5116549;28;20043;-84
2024/01/29 07:44:20;;;;;;;10.68;5.97;;;4.60;99.90;;;;;;5115420;28;20047;-86
2024/01/29 07:46:46;;;;;;;9.40;5.78;;;4.30;99.90;;;;;;5115446;28;20105;-86
2024/01/29 07:49:12;;;;;;;12.48;5.68;;;4.20;99.90;;;;;;5116858;28;20089;-85
2024/01/29 07:51:41;;;;;;;11.57;6.03;;;3.20;99.90;;;;;;5115184;28;20044;-84
2024/01/29 07:54:09;;;;;;;12.00;5.85;;;3.30;99.90;;;;;;5115708;28;20047;-84
2024/01/29 07:56:35;;;;;;;8.80;5.53;;;5.00;99.90;;;;;;5116599;28;20071;-84
2024/01/29 07:59:01;;;;;;;11.95;5.82;;;4.00;99.90;;;;;;5117073;28;20048;-85
2024/01/29 08:01:27;;;;;;;11.30;5.97;;;3.10;99.90;;;;;;5116652;28;20042;-85
2024/01/29 08:03:53;;;;;;;8.95;6.28;;;5.10;99.90;;;;;;5116593;28;20369;-85
2024/01/29 08:06:19;;;;;;;10.07;5.55;;;3.10;99.90;;;;;;5114832;28;20088;-87
2024/01/29 08:08:44;;;;;;;8.93;5.82;;;3.60;99.90;;;;;;5098330;28;20040;-86
2024/01/29 08:11:10;;;;;;;9.73;5.90;;;5.10;99.90;;;;;;5116158;28;20044;-84
2024/01/29 08:13:36;;;;;;;9.65;6.40;;;5.00;99.90;;;;;;5115227;28;20045;-84
2024/01/29 08:16:01;;;;;;;11.63;6.22;;;5.40;99.90;;;;;;5116424;28;20512;-84
2024/01/29 08:18:27;;;;;;;10.07;6.07;;;3.60;99.90;;;;;;5097849;28;20094;-83
2024/01/29 08:20:53;;;;;;;9.43;5.80;;;4.20;99.90;;;;;;5115413;28;20392;-86
2024/01/29 08:23:18;;;;;;;11.35;6.03;;;3.50;99.90;;;;;;5114858;28;20046;-84
2024/01/29 08:25:44;;;;;;;8.27;5.90;;;5.10;99.90;;;;;;5113732;28;20513;-85
2024/01/29 08:28:11;;;;;;;7.57;5.50;;;3.80;99.90;;;;;;5114832;28;20052;-84
2024/01/29 08:30:37;;;;;;;10.82;6.57;;;3.80;99.90;;;;;;5115107;28;20404;-85
2024/01/29 08:33:03;;;;;;;15.02;6.40;;;4.70;99.90;;;;;;5115854;28;20046;-84
2024/01/29 08:35:29;;;;;;;10.15;6.03;;;4.00;99.90;;;;;;5097556;28;20486;-84
2024/01/29 08:37:54;;;;;;;12.93;6.43;;;4.90;99.90;;;;;;5115960;28;20043;-84
2024/01/29 08:40:20;;;;;;;10.77;6.32;;;5.00;99.90;;;;;;5113965;28;20492;-84
2024/01/29 08:42:47;;;;;;;10.25;6.18;;;5.00;99.90;;;;;;5097565;28;20066;-83
2024/01/29 08:45:16;;;;;;;14.23;6.93;;;5.50;99.90;;;;;;5115640;28;20488;-84
2024/01/29 08:47:43;;;;;;;12.75;6.82;;;4.20;99.90;;;;;;5114741;28;20083;-84
2024/01/29 08:50:09;;;;;;;9.90;6.15;;;4.30;99.90;;;;;;5115611;28;20081;-84
2024/01/29 08:52:35;;;;;;;11.30;6.55;;;4.90;99.90;;;;;;5114345;28;20043;-83
2024/01/29 08:55:00;;;;;;;12.02;6.40;;;5.00;99.90;;;;;;5114922;28;20077;-84
2024/01/29 08:57:28;;;;;;;12.07;6.47;;;6.20;99.90;;;;;;5115270;28;20039;-85
2024/01/29 08:59:54;;;;;;;11.82;6.82;;;5.70;99.90;;;;;;5114540;28;20071;-84
2024/01/29 09:02:20;;;;;;;9.57;6.72;;;4.90;99.90;;;;;;5097666;28;20487;-86
2024/01/29 09:04:45;;;;;;;9.52;6.47;;;5.10;99.90;;;;;;5114050;28;20039;-85
2024/01/29 09:07:11;;;;;;;10.18;7.22;;;5.40;99.90;;;;;;5114305;28;20048;-84
2024/01/29 09:09:36;;;;;;;12.98;6.80;;;6.30;99.90;;;;;;5114108;28;20036;-84
2024/01/29 09:12:02;;;;;;;13.00;7.00;;;5.50;99.90;;;;;;5113754;28;20373;-84
2024/01/29 09:14:28;;;;;;;15.70;7.40;;;4.70;99.90;;;;;;5113534;28;20047;-84
2024/01/29 09:16:54;;;;;;;12.73;7.07;;;5.10;99.90;;;;;;5113937;28;20104;-84
2024/01/29 09:19:21;;;;;;;12.02;7.47;;;5.30;99.90;;;;;;5115108;28;20053;-84
2024/01/29 09:21:48;;;;;;;11.55;7.63;;;5.60;99.90;;;;;;5096799;28;20083;-84
2024/01/29 09:24:14;;;;;;;12.80;7.75;;;4.90;99.90;;;;;;5114027;28;20081;-84
2024/01/29 09:26:39;;;;;;;10.15;7.30;;;5.10;99.90;;;;;;5113760;28;20053;-84
2024/01/29 09:29:05;;;;;;;12.15;7.57;;;6.00;99.90;;;;;;5113006;28;20039;-85
2024/01/29 09:31:31;;;;;;;10.63;7.20;;;5.70;99.90;;;;;;5114917;28;20454;-84
2024/01/29 09:33:56;;;;;;;11.55;7.22;;;6.50;99.90;;;;;;5114883;28;20551;-84
2024/01/29 09:36:22;;;;;;;12.20;7.57;;;5.20;99.90;;;;;;5113579;28;20094;-85
2024/01/29 09:38:48;;;;;;;13.05;8.18;;;5.60;99.90;;;;;;5113389;28;20086;-85
2024/01/29 09:41:13;;;;;;;11.45;8.05;;;6.90;99.90;;;;;;5113120;28;20056;-84
2024/01/29 09:43:40;;;;;;;13.35;8.30;;;5.60;99.90;;;;;;5113047;28;20056;-84
2024/01/29 09:46:07;;;;;;;14.82;8.52;;;5.20;99.90;;;;;;5113368;28;20075;-84
2024/01/29 09:48:33;;;;;;;10.02;6.80;;;6.40;99.90;;;;;;5114645;28;20051;-84
2024/01/29 09:51:00;;;;;;;12.48;8.07;;;5.10;99.90;;;;;;5112940;28;20035;-84
2024/01/29 09:53:27;;;;;;;13.18;7.57;;;5.20;99.90;;;;;;5113320;28;20042;-84
2024/01/29 09:55:52;;;;;;;13.63;8.13;;;7.20;99.90;;;;;;5095846;28;20047;-83
2024/01/29 09:58:19;;;;;;;12.43;7.40;;;6.60;99.90;;;;;;5096004;28;20057;-84
2024/01/29 10:00:45;;;;;;;13.00;8.07;;;7.50;99.90;;;;;;5112754;28;20086;-84
2024/01/29 10:03:24;;;;;;;15.18;8.48;;;6.40;99.90;;;;;;5112909;28;20090;-84
2024/01/29 10:05:51;;;;;;;13.10;8.35;;;6.50;99.90;;;;;;5096209;28;20123;-85
2024/01/29 10:08:19;;;;;;;15.73;8.75;;;5.70;99.90;;;;;;5112756;28;20564;-84
2024/01/29 10:10:46;;;;;;;17.38;9.15;;;6.60;99.90;;;;;;5112831;28;20048;-84
2024/01/29 10:13:13;;;;;;;12.15;8.70;;;6.90;99.90;;;;;;5113914;28;20096;-84
2024/01/29 10:15:41;;;;;;;11.68;8.23;;;5.60;99.90;;;;;;5114208;28;20032;-85
2024/01/29 10:18:13;;;;;;;17.40;9.40;;;5.60;99.90;;;;;;5112742;28;20086;-84
2024/01/29 10:20:39;;;;;;;14.90;9.38;;;6.00;99.90;;;;;;5112653;28;20031;-85
2024/01/29 10:23:05;;;;;;;16.40;9.18;;;7.50;99.90;;;;;;5112560;28;20039;-85
2024/01/29 10:25:38;;;;;;;18.80;10.45;;;5.50;99.90;;;;;;5113957;28;20046;-84
2024/01/29 10:28:13;;;;;;;18.73;11.35;;;6.30;99.90;;;;;;5112719;28;20036;-84
2024/01/29 10:30:41;;;;;;;18.70;11.27;;;6.70;99.90;;;;;;5114177;28;20461;-85
2024/01/29 10:33:09;;;;;;;23.52;11.50;;;6.50;99.90;;;;;;5112542;28;20518;-85
2024/01/29 10:35:35;;;;;;;22.88;11.18;;;6.40;99.90;;;;;;5113395;28;20043;-86
2024/01/29 10:38:04;;;;;;;22.60;11.25;;;6.50;99.90;;;;;;5112444;28;20100;-86
2024/01/29 10:40:31;;;;;;;21.42;11.15;;;6.60;99.90;;;;;;5112251;28;20496;-84
2024/01/29 10:42:58;;;;;;;25.48;11.82;;;7.30;99.90;;;;;;5112457;28;20047;-84
2024/01/29 10:45:25;;;;;;;20.60;11.10;;;7.10;99.90;;;;;;5112547;28;20051;-84
2024/01/29 10:47:59;;;;;;;20.23;12.10;;;8.20;99.90;;;;;;5112491;28;20048;-83
2024/01/29 10:50:25;;;;;;;21.58;11.23;;;6.90;99.90;;;;;;5095143;28;20484;-86
2024/01/29 10:52:54;;;;;;;16.02;10.77;;;7.50;99.90;;;;;;5113517;28;20036;-84
2024/01/29 10:55:20;;;;;;;23.17;11.52;;;8.40;99.90;;;;;;5114697;28;20036;-84
2024/01/29 10:57:47;;;;;;;21.98;10.82;;;7.20;99.90;;;;;;5116706;28;20047;-83
2024/01/29 11:00:17;;;;;;;16.48;10.40;;;7.60;99.90;;;;;;5116798;28;20039;-84
2024/01/29 11:02:44;;;;;;;18.75;10.82;;;7.10;99.90;;;;;;5117661;28;20171;-82
2024/01/29 11:05:12;;;;;;;15.23;9.80;;;7.80;99.90;;;;;;5099618;28;20051;-85
2024/01/29 11:07:41;;;;;;;19.08;11.13;;;7.40;99.90;;;;;;5116553;28;20055;-83
2024/01/29 11:10:22;;;;;;;18.35;11.07;;;8.50;99.90;;;;;;5099436;28;20057;-83
2024/01/29 11:12:52;;;;;;;17.67;10.50;;;7.30;99.90;;;;;;5117712;28;20079;-82
2024/01/29 11:15:18;;;;;;;18.30;10.95;;;7.30;99.90;;;;;;5117612;28;20042;-84
2024/01/29 11:17:44;;;;;;;22.95;12.25;;;7.20;99.90;;;;;;5116640;28;20430;-84
2024/01/29 11:31:12;;;;;;;22.70;12.27;;;7.40;99.90;;;;;;5117173;28;20135;-82
2024/01/29 11:33:39;;;;;;;24.27;12.48;;;7.80;99.90;;;;;;5116013;28;20055;-83
2024/01/29 11:36:16;;;;;;;30.10;12.95;;;7.80;99.90;;;;;;5116135;28;20071;-83
2024/01/29 11:38:42;;;;;;;22.55;12.00;;;8.20;99.90;;;;;;5115321;28;20078;-83
2024/01/29 11:41:07;;;;;;;30.33;12.13;;;7.30;99.90;;;;;;5115853;28;20381;-84
2024/01/29 11:43:33;;;;;;;24.20;12.73;;;8.00;99.90;;;;;;5115622;28;20126;-84
2024/01/29 11:45:59;;;;;;;23.10;12.50;;;8.80;99.90;;;;;;5117061;28;20044;-84
2024/01/29 11:48:25;;;;;;;25.20;12.45;;;8.10;99.90;;;;;;5116908;28;20497;-85
2024/01/29 11:50:52;;;;;;;19.77;10.40;;;8.30;99.90;;;;;;5116662;28;20085;-85
2024/01/29 11:53:25;;;;;;;22.92;11.02;;;8.80;99.90;;;;;;5115683;28;20075;-84
2024/01/29 11:55:51;;;;;;;18.77;10.40;;;9.10;99.90;;;;;;5115003;28;20043;-84
2024/01/29 11:58:21;;;;;;;17.42;10.27;;;7.50;99.90;;;;;;5115726;28;20052;-83
2024/01/29 12:00:49;;;;;;;15.60;10.90;;;7.60;99.90;;;;;;5098626;28;20076;-84
2024/01/29 12:03:37;;;;;;;24.33;10.32;;;8.10;99.90;;;;;;5116481;28;20044;-87
2024/01/29 12:06:07;;;;;;;21.35;11.18;;;7.70;99.90;;;;;;5116289;28;20046;-90
2024/01/29 12:08:32;;;;;;;23.67;11.20;;;7.50;99.90;;;;;;5116264;28;20047;-88
2024/01/29 12:11:01;;;;;;;20.25;10.93;;;7.70;99.90;;;;;;5115662;28;20160;-88
2024/01/29 12:13:27;;;;;;;21.00;10.57;;;7.80;99.90;;;;;;5113423;28;20051;-89
2024/01/29 12:15:55;;;;;;;18.27;10.40;;;7.70;99.90;;;;;;5116015;28;20040;-89
2024/01/29 12:18:25;;;;;;;19.55;10.90;;;8.20;99.90;;;;;;5116019;28;20095;-90
2024/01/29 12:20:51;;;;;;;23.70;11.68;;;8.00;99.90;;;;;;5097143;28;20036;-90
2024/01/29 12:23:18;;;;;;;23.35;12.63;;;7.80;99.90;;;;;;5095944;28;20044;-90
2024/01/29 12:25:47;;;;;;;23.63;11.63;;;8.00;99.90;;;;;;5114076;28;20051;-90
2024/01/29 12:28:15;;;;;;;26.60;12.30;;;9.60;99.90;;;;;;5096416;28;20040;-86
2024/01/29 12:30:41;;;;;;;24.05;12.18;;;8.00;99.90;;;;;;5095313;28;20051;-87
2024/01/29 12:33:07;;;;;;;23.98;13.00;;;8.60;99.90;;;;;;5103277;28;20044;-85
2024/01/29 12:35:36;;;;;;;29.42;13.73;;;8.40;99.90;;;;;;5115223;28;20134;-87
2024/01/29 12:38:06;;;;;;;26.17;13.93;;;8.00;99.90;;;;;;5116470;28;20100;-86
2024/01/29 12:40:36;;;;;;;29.67;13.05;;;8.20;99.90;;;;;;5114743;28;20515;-89
2024/01/29 12:43:03;;;;;;;29.05;13.30;;;8.20;99.90;;;;;;5115625;28;20052;-88
2024/01/29 12:45:29;;;;;;;24.92;13.15;;;8.30;99.90;;;;;;5115511;28;20043;-89
2024/01/29 12:48:08;;;;;;;27.00;13.13;;;8.00;99.90;;;;;;5115989;28;20040;-92
2024/01/29 12:50:34;;;;;;;29.30;14.32;;;8.20;99.90;;;;;;5115289;28;20063;-86
2024/01/29 12:53:01;;;;;;;31.60;13.35;;;8.00;99.90;;;;;;5116303;28;21977;-91
2024/01/29 12:55:26;;;;;;;24.52;12.95;;;8.20;99.90;;;;;;5118249;28;20112;-91
2024/01/29 12:57:52;;;;;;;25.00;12.80;;;8.30;99.90;;;;;;5116616;28;20504;-91
2024/01/29 13:00:18;;;;;;;22.13;12.23;;;8.70;99.90;;;;;;5117709;28;20043;-91